createdAt,value
2023-01-08T00:00:12.786Z,10.90
2023-01-08T00:05:14.121Z,8.68
2023-01-08T00:10:15.629Z,10.85
2023-01-08T00:15:17.001Z,7.93
2023-01-08T00:20:18.336Z,8.18
2023-01-08T00:25:20.824Z,9.50
2023-01-08T00:30:22.219Z,7.60
2023-01-08T00:35:23.669Z,9.35
2023-01-08T00:40:25.033Z,8.52
2023-01-08T00:45:26.427Z,8.73
2023-01-08T00:50:28.189Z,7.68
2023-01-08T00:55:30.573Z,10.20
2023-01-08T01:00:32.175Z,6.95
2023-01-08T01:05:33.554Z,6.68
2023-01-08T01:10:34.977Z,12.73
2023-01-08T01:15:36.383Z,12.05
2023-01-08T01:20:38.635Z,11.13
2023-01-08T01:25:39.975Z,8.85
2023-01-08T01:30:41.430Z,10.38
2023-01-08T01:35:42.822Z,13.18
2023-01-08T01:40:44.151Z,10.68
2023-01-08T01:45:45.653Z,13.38
2023-01-08T01:50:51.645Z,6.55
2023-01-08T01:55:53.606Z,9.82
2023-01-08T02:00:58.077Z,6.55
2023-01-08T02:06:19.386Z,8.45
2023-01-08T02:11:35.462Z,4.28
2023-01-08T02:16:45.599Z,4.82
2023-01-08T02:22:02.737Z,3.97
2023-01-08T02:27:06.592Z,4.47
2023-01-08T02:32:08.124Z,3.38
2023-01-08T02:37:10.059Z,4.63
2023-01-08T02:42:20.337Z,6.55
2023-01-08T02:47:28.344Z,5.38
2023-01-08T02:52:34.437Z,7.90
2023-01-08T02:57:35.945Z,5.75
2023-01-08T03:02:41.473Z,6.03
2023-01-08T03:07:43.485Z,6.93
2023-01-08T03:12:53.739Z,5.72
2023-01-08T03:18:01.638Z,7.05
2023-01-08T03:23:07.749Z,4.72
2023-01-08T03:28:18.861Z,5.97
2023-01-08T03:33:22.946Z,7.78
2023-01-08T03:38:30.865Z,6.97
2023-01-08T03:43:32.303Z,7.47
2023-01-08T03:48:36.231Z,8.68
2023-01-08T03:53:37.868Z,10.45
2023-01-08T03:58:39.207Z,7.47
2023-01-08T04:03:40.553Z,8.32
2023-01-08T04:08:41.886Z,9.88
2023-01-08T04:13:43.282Z,9.85
2023-01-08T04:18:44.679Z,11.13
2023-01-08T04:23:46.040Z,11.90
2023-01-08T04:28:47.362Z,13.57
2023-01-08T04:33:48.752Z,12.57
2023-01-08T04:38:50.077Z,14.45
2023-01-08T04:43:51.486Z,11.40
2023-01-08T04:48:52.900Z,15.68
2023-01-08T04:53:54.364Z,11.93
2023-01-08T04:58:55.745Z,12.25
2023-01-08T05:03:59.447Z,13.40
2023-01-08T05:09:01.090Z,15.35
2023-01-08T05:14:02.408Z,14.50
2023-01-08T05:19:03.724Z,13.20
2023-01-08T05:24:05.332Z,13.80
2023-01-08T05:29:06.673Z,10.68
2023-01-08T05:34:08.006Z,11.75
2023-01-08T05:39:09.493Z,10.30
2023-01-08T05:44:11.048Z,11.43
2023-01-08T05:49:12.483Z,11.15
2023-01-08T05:54:14.362Z,11.75
2023-01-08T05:59:15.741Z,10.07
2023-01-08T06:04:17.154Z,8.63
2023-01-08T06:09:19.791Z,8.82
2023-01-08T06:14:21.182Z,8.93
2023-01-08T06:19:22.744Z,7.75
2023-01-08T06:24:24.130Z,8.98
2023-01-08T06:29:25.488Z,9.23
2023-01-08T06:34:26.844Z,12.30
2023-01-08T06:39:28.270Z,8.20
2023-01-08T06:44:29.710Z,10.32
2023-01-08T06:49:31.045Z,9.13
2023-01-08T06:54:32.407Z,9.52
2023-01-08T06:59:33.741Z,11.10
2023-01-08T07:04:35.081Z,9.00
2023-01-08T07:09:36.421Z,8.13
2023-01-08T07:14:37.825Z,6.43
2023-01-08T07:19:39.271Z,4.68
2023-01-08T07:24:40.722Z,6.75
2023-01-08T07:29:42.064Z,6.00
2023-01-08T07:34:43.371Z,6.40
2023-01-08T07:39:44.795Z,5.03
2023-01-08T07:44:46.164Z,5.75
2023-01-08T07:49:47.500Z,4.15
2023-01-08T07:54:48.839Z,5.90
2023-01-08T07:59:50.199Z,5.93
2023-01-08T08:04:51.557Z,5.15
2023-01-08T08:09:52.896Z,4.57
2023-01-08T08:14:54.223Z,5.60
2023-01-08T08:19:55.573Z,4.40
2023-01-08T08:24:56.937Z,6.03
2023-01-08T08:29:58.323Z,5.50
2023-01-08T08:35:00.214Z,7.50
2023-01-08T08:40:01.551Z,5.68
2023-01-08T08:45:03.365Z,5.20
2023-01-08T08:50:06.466Z,8.02
2023-01-08T08:55:08.274Z,4.03
2023-01-08T09:00:10.387Z,7.80
2023-01-08T09:05:11.944Z,6.07
2023-01-08T09:10:13.264Z,5.25
2023-01-08T09:15:14.692Z,4.90
2023-01-08T09:20:16.166Z,5.15
2023-01-08T09:25:17.891Z,4.75
2023-01-08T09:30:19.312Z,5.80
2023-01-08T09:35:20.651Z,6.45
2023-01-08T09:40:26.316Z,4.55
2023-01-08T09:45:31.015Z,6.43
2023-01-08T09:50:33.915Z,6.88
2023-01-08T09:55:35.439Z,6.90
2023-01-08T10:00:36.878Z,4.90
2023-01-08T10:05:38.364Z,5.72
2023-01-08T10:10:41.609Z,4.25
2023-01-08T10:15:42.992Z,4.85
2023-01-08T10:20:44.328Z,8.48
2023-01-08T10:25:57.033Z,5.90
2023-01-08T10:31:04.119Z,6.45
2023-01-08T10:36:08.823Z,6.03
2023-01-08T10:41:13.400Z,5.95
2023-01-08T10:46:24.613Z,6.15
2023-01-08T10:51:28.647Z,3.67
2023-01-08T10:56:40.498Z,5.70
2023-01-08T11:01:47.261Z,5.78
2023-01-08T11:06:48.787Z,5.37
2023-01-08T11:11:50.272Z,8.23
2023-01-08T11:16:51.963Z,4.70
2023-01-08T11:21:59.376Z,3.63
2023-01-08T11:27:16.685Z,3.35
2023-01-08T11:32:37.442Z,5.13
2023-01-08T11:37:41.345Z,4.15
2023-01-08T11:43:07.369Z,5.57
2023-01-08T11:48:42.402Z,5.78
2023-01-08T11:53:57.228Z,5.35
2023-01-08T11:59:21.137Z,3.75
2023-01-08T12:04:58.090Z,3.55
2023-01-08T12:10:11.585Z,4.38
2023-01-08T12:15:12.949Z,3.42
2023-01-08T12:20:30.160Z,4.70
2023-01-08T12:25:44.481Z,6.15
2023-01-08T12:30:52.010Z,2.92
2023-01-08T12:41:00.345Z,2.33
2023-01-08T12:46:03.692Z,2.13
2023-01-08T12:51:18.007Z,1.80
2023-01-08T12:56:37.487Z,3.80
2023-01-08T13:01:47.465Z,2.63
2023-01-08T13:07:01.321Z,2.63
2023-01-08T13:12:03.006Z,3.22
2023-01-08T13:17:07.780Z,2.17
2023-01-08T13:22:28.362Z,1.50
2023-01-08T13:27:30.061Z,2.20
2023-01-08T13:32:34.442Z,1.13
2023-01-08T13:37:35.813Z,2.13
2023-01-08T13:42:41.232Z,2.00
2023-01-08T13:47:43.709Z,3.08
2023-01-08T13:52:55.951Z,1.40
2023-01-08T13:58:13.168Z,0.90
2023-01-08T14:03:29.407Z,1.02
2023-01-08T14:08:30.787Z,3.40
2023-01-08T14:13:35.533Z,2.75
2023-01-08T14:18:40.680Z,1.85
2023-01-08T14:23:47.488Z,1.63
2023-01-08T14:28:54.077Z,1.88
2023-01-08T14:33:57.611Z,2.50
2023-01-08T14:38:58.952Z,2.50
2023-01-08T14:44:00.342Z,1.20
2023-01-08T14:49:01.893Z,2.00
2023-01-08T14:54:06.025Z,1.00
2023-01-08T14:59:10.872Z,1.65
2023-01-08T15:04:18.634Z,2.25
2023-01-08T15:09:31.747Z,1.35
2023-01-08T15:14:36.598Z,1.15
2023-01-08T15:19:49.381Z,2.80
2023-01-08T15:24:58.148Z,2.63
2023-01-08T15:30:00.776Z,2.35
2023-01-08T15:35:12.683Z,1.58
2023-01-08T15:40:14.203Z,2.20
2023-01-08T15:45:21.377Z,3.10
2023-01-08T15:50:24.671Z,1.38
2023-01-08T15:55:26.276Z,1.38
2023-01-08T16:00:27.907Z,1.10
2023-01-08T16:05:30.584Z,3.90
2023-01-08T16:10:32.569Z,1.40
2023-01-08T16:15:33.983Z,2.65
2023-01-08T16:20:35.676Z,3.00
2023-01-08T16:25:39.092Z,2.40
2023-01-08T16:30:42.504Z,2.58
2023-01-08T16:35:43.855Z,2.33
2023-01-08T16:40:45.217Z,4.38
2023-01-08T16:45:47.712Z,3.10
2023-01-08T16:50:49.489Z,2.22
2023-01-08T16:55:50.857Z,2.33
2023-01-08T17:00:52.430Z,1.40
2023-01-08T17:05:55.592Z,1.70
2023-01-08T17:10:56.969Z,1.85
2023-01-08T17:15:59.900Z,2.28
2023-01-08T17:21:02.228Z,2.22
2023-01-08T17:26:08.975Z,3.58
2023-01-08T17:31:13.287Z,1.90
2023-01-08T17:36:17.212Z,1.85
2023-01-08T17:41:38.341Z,2.05
2023-01-08T17:46:42.347Z,3.40
2023-01-08T17:51:45.699Z,1.55
2023-01-08T17:56:48.854Z,1.80
2023-01-08T18:01:52.791Z,0.95
2023-01-08T18:06:54.374Z,1.80
2023-01-08T18:11:55.804Z,2.45
2023-01-08T18:16:57.213Z,1.30
2023-01-08T18:21:58.617Z,1.13
2023-01-08T18:26:59.991Z,1.98
2023-01-08T18:32:02.042Z,2.47
2023-01-08T18:37:03.426Z,1.40
2023-01-08T18:42:23.641Z,2.58
2023-01-08T18:47:27.634Z,3.10
2023-01-08T18:52:29.652Z,2.55
2023-01-08T18:57:31.327Z,4.75
2023-01-08T19:02:35.596Z,5.45
2023-01-08T19:07:37.052Z,6.72
2023-01-08T19:12:39.171Z,5.18
2023-01-08T19:17:40.529Z,4.32
2023-01-08T19:22:41.860Z,6.68
2023-01-08T19:27:44.920Z,6.03
2023-01-08T19:32:48.768Z,4.80
2023-01-08T19:37:50.188Z,3.85
2023-01-08T19:43:10.308Z,2.78
2023-01-08T19:48:11.689Z,2.75
2023-01-08T19:53:14.594Z,2.40
2023-01-08T19:58:18.472Z,2.17
2023-01-08T20:03:23.815Z,1.73
2023-01-08T20:08:25.129Z,1.33
2023-01-08T20:13:26.449Z,2.20
2023-01-08T20:18:27.940Z,2.35
2023-01-08T20:23:29.341Z,1.42
2023-01-08T20:28:30.743Z,3.38
2023-01-08T20:33:32.179Z,4.38
2023-01-08T20:38:33.512Z,1.23
2023-01-08T20:43:35.748Z,1.95
2023-01-08T20:48:46.926Z,2.08
2023-01-08T20:53:48.840Z,4.68
2023-01-08T20:58:50.247Z,2.95
2023-01-08T21:03:55.201Z,1.67
2023-01-08T21:08:59.528Z,1.30
2023-01-08T21:14:01.837Z,1.95
2023-01-08T21:19:03.637Z,0.98
2023-01-08T21:24:05.649Z,3.33
2023-01-08T21:29:07.888Z,1.52
2023-01-08T21:34:10.371Z,3.40
2023-01-08T21:39:11.887Z,2.20
2023-01-08T21:44:35.173Z,7.90
2023-01-08T21:49:36.569Z,5.63
2023-01-08T21:54:40.896Z,6.03
2023-01-08T21:59:42.594Z,3.83
2023-01-08T22:04:44.823Z,3.95
2023-01-08T22:09:46.170Z,2.55
2023-01-08T22:14:47.476Z,2.47
2023-01-08T22:19:48.874Z,2.83
2023-01-08T22:24:52.204Z,3.13
2023-01-08T22:29:54.430Z,2.78
2023-01-08T22:34:55.843Z,3.10
2023-01-08T22:39:57.180Z,4.13
2023-01-08T22:44:58.501Z,3.85
2023-01-08T22:49:59.832Z,2.50
2023-01-08T22:55:02.568Z,1.65
2023-01-08T23:00:06.875Z,1.80
2023-01-08T23:05:08.432Z,1.55
2023-01-08T23:10:10.536Z,1.92
2023-01-08T23:15:11.879Z,1.85
2023-01-08T23:20:14.165Z,2.88
2023-01-08T23:25:16.170Z,2.55
2023-01-08T23:30:17.600Z,3.67
2023-01-08T23:35:18.974Z,1.48
2023-01-08T23:40:20.296Z,2.75
2023-01-08T23:45:21.660Z,1.20
2023-01-08T23:50:22.979Z,2.15
2023-01-08T23:55:24.563Z,2.42
